createdAt,value
2022-12-14T00:00:32.796Z,84.22
2022-12-14T00:02:59.808Z,83.83
2022-12-14T00:05:28.433Z,83.55
2022-12-14T00:07:55.708Z,83.46
2022-12-14T00:10:23.726Z,83.36
2022-12-14T00:12:51.694Z,83.30
2022-12-14T00:15:23.739Z,83.31
2022-12-14T00:17:51.742Z,83.21
2022-12-14T00:20:19.760Z,83.18
2022-12-14T00:22:47.740Z,83.07
2022-12-14T00:28:07.972Z,83.57
2022-12-14T00:30:59.830Z,83.46
2022-12-14T00:33:27.783Z,83.34
2022-12-14T00:35:55.687Z,83.34
2022-12-14T00:38:49.697Z,83.39
2022-12-14T00:44:09.696Z,83.42
2022-12-14T00:47:01.790Z,83.11
2022-12-14T00:49:33.855Z,83.20
2022-12-14T00:52:01.861Z,83.17
2022-12-14T00:54:29.708Z,83.15
2022-12-14T00:57:02.779Z,83.16
2022-12-14T00:59:29.795Z,82.99
2022-12-14T01:01:57.886Z,83.04
2022-12-14T01:04:26.087Z,83.02
2022-12-14T01:09:45.682Z,83.00
2022-12-14T01:12:13.802Z,82.99
2022-12-14T01:14:41.691Z,83.05
2022-12-14T01:17:09.700Z,83.26
2022-12-14T01:20:01.851Z,83.23
2022-12-14T01:22:30.076Z,83.03
2022-12-14T01:24:57.706Z,83.18
2022-12-14T01:30:24.248Z,83.13
2022-12-14T01:32:51.794Z,83.18
2022-12-14T01:35:19.716Z,83.30
2022-12-14T01:37:49.067Z,83.32
2022-12-14T01:40:17.886Z,83.41
2022-12-14T01:42:46.831Z,83.54
2022-12-14T01:45:21.491Z,83.42
2022-12-14T01:47:54.532Z,83.48
2022-12-14T01:50:28.522Z,83.50
2022-12-14T01:53:10.970Z,83.37
2022-12-14T01:55:41.658Z,83.21
2022-12-14T02:01:11.780Z,83.38
2022-12-14T02:03:48.871Z,83.18
2022-12-14T02:07:00.815Z,83.21
2022-12-14T02:09:37.691Z,83.32
2022-12-14T02:12:21.270Z,83.22
2022-12-14T02:14:52.296Z,83.39
2022-12-14T02:17:20.544Z,83.41
2022-12-14T02:19:49.385Z,83.25
2022-12-14T02:22:23.432Z,83.21
2022-12-14T02:25:14.404Z,83.30
2022-12-14T02:31:06.575Z,83.50
2022-12-14T02:37:01.603Z,83.23
2022-12-14T02:39:44.983Z,83.27
2022-12-14T02:42:24.165Z,83.56
2022-12-14T02:45:08.130Z,83.50
2022-12-14T02:51:56.404Z,83.51
2022-12-14T02:54:23.801Z,83.60
2022-12-14T02:56:59.773Z,83.65
2022-12-14T02:59:28.444Z,83.68
2022-12-14T03:01:56.348Z,83.29
2022-12-14T03:04:24.303Z,83.34
2022-12-14T03:07:04.536Z,83.26
2022-12-14T03:09:37.729Z,83.15
2022-12-14T03:15:03.242Z,83.08
2022-12-14T03:17:34.292Z,83.25
2022-12-14T03:20:09.891Z,83.16
2022-12-14T03:22:44.244Z,83.27
2022-12-14T03:25:26.351Z,83.39
2022-12-14T03:31:06.004Z,83.32
2022-12-14T03:33:38.770Z,83.45
2022-12-14T03:36:19.967Z,83.54
2022-12-14T03:42:08.489Z,83.54
2022-12-14T03:44:51.089Z,83.56
2022-12-14T03:47:26.805Z,83.57
2022-12-14T03:53:48.981Z,83.58
2022-12-14T03:56:20.026Z,83.72
2022-12-14T03:58:58.123Z,83.63
2022-12-14T04:01:42.910Z,83.51
2022-12-14T04:04:18.575Z,83.72
2022-12-14T04:07:08.437Z,83.82
2022-12-14T04:13:49.260Z,83.83
2022-12-14T04:16:43.979Z,83.83
2022-12-14T04:19:31.519Z,83.82
2022-12-14T04:22:06.387Z,83.79
2022-12-14T04:25:04.503Z,83.83
2022-12-14T04:27:58.855Z,83.56
2022-12-14T04:30:36.249Z,83.63
2022-12-14T04:33:31.889Z,83.71
2022-12-14T04:36:02.504Z,83.55
2022-12-14T04:38:36.722Z,83.62
2022-12-14T04:41:14.534Z,83.48
2022-12-14T04:43:46.359Z,83.54
2022-12-14T04:46:32.666Z,83.66
2022-12-14T04:49:23.104Z,83.71
2022-12-14T04:52:36.760Z,83.06
2022-12-14T04:55:11.172Z,83.52
2022-12-14T04:58:22.801Z,83.47
2022-12-14T05:01:25.255Z,83.38
2022-12-14T05:04:27.759Z,83.56
2022-12-14T05:06:55.687Z,83.53
2022-12-14T05:09:30.371Z,83.43
2022-12-14T05:12:29.067Z,83.29
2022-12-14T05:15:44.776Z,83.72
2022-12-14T05:18:19.137Z,83.75
2022-12-14T05:20:48.105Z,83.76
2022-12-14T05:23:16.798Z,83.76
2022-12-14T05:25:45.782Z,83.82
2022-12-14T05:28:22.730Z,83.71
2022-12-14T05:30:55.772Z,83.88
2022-12-14T05:33:30.467Z,83.35
2022-12-14T05:36:03.893Z,83.77
2022-12-14T05:38:31.759Z,83.79
2022-12-14T05:40:59.757Z,83.83
2022-12-14T05:43:32.733Z,83.67
2022-12-14T05:46:00.761Z,83.64
2022-12-14T05:48:27.761Z,83.39
2022-12-14T05:50:55.923Z,83.49
2022-12-14T05:53:23.753Z,83.63
2022-12-14T05:55:52.110Z,83.48
2022-12-14T05:58:19.693Z,83.29
2022-12-14T06:00:47.687Z,82.75
2022-12-14T06:03:15.717Z,83.11
2022-12-14T06:08:39.402Z,83.38
2022-12-14T06:11:13.661Z,83.46
2022-12-14T06:13:42.913Z,83.43
2022-12-14T06:16:12.416Z,83.51
2022-12-14T06:21:41.567Z,83.48
2022-12-14T06:24:16.567Z,83.29
2022-12-14T06:26:43.815Z,83.36
2022-12-14T06:29:20.523Z,83.51
2022-12-14T06:31:49.475Z,83.56
2022-12-14T06:34:19.220Z,83.46
2022-12-14T06:36:47.922Z,83.30
2022-12-14T06:39:16.938Z,83.41
2022-12-14T06:41:44.210Z,83.63
2022-12-14T06:44:19.217Z,83.46
2022-12-14T06:47:12.534Z,83.52
2022-12-14T06:49:44.782Z,83.66
2022-12-14T06:52:11.704Z,83.44
2022-12-14T06:57:31.698Z,83.71
2022-12-14T07:00:04.769Z,83.94
2022-12-14T07:02:32.085Z,83.70
2022-12-14T07:05:31.174Z,83.59
2022-12-14T07:08:25.848Z,83.70
2022-12-14T07:11:02.263Z,83.62
2022-12-14T07:13:30.203Z,83.71
2022-12-14T07:15:59.144Z,83.63
2022-12-14T07:18:28.324Z,83.65
2022-12-14T07:21:02.553Z,83.62
2022-12-14T07:26:26.445Z,83.70
2022-12-14T07:28:55.522Z,83.65
2022-12-14T07:31:26.248Z,83.58
2022-12-14T07:33:59.188Z,83.71
2022-12-14T07:36:29.164Z,83.75
2022-12-14T07:38:57.870Z,83.71
2022-12-14T07:41:31.493Z,83.67
2022-12-14T07:44:06.194Z,83.52
2022-12-14T07:46:33.915Z,83.57
2022-12-14T07:49:02.749Z,83.32
2022-12-14T07:51:36.496Z,83.38
2022-12-14T07:54:06.103Z,83.40
2022-12-14T07:56:42.963Z,83.16
2022-12-14T07:59:14.927Z,83.45
2022-12-14T08:01:42.854Z,83.28
2022-12-14T08:04:13.208Z,83.30
2022-12-14T08:06:42.193Z,83.42
2022-12-14T08:09:16.971Z,83.43
2022-12-14T08:11:44.064Z,83.49
2022-12-14T08:14:17.019Z,83.23
2022-12-14T08:16:48.524Z,82.91
2022-12-14T08:19:18.973Z,82.85
2022-12-14T08:21:47.539Z,82.78
2022-12-14T08:24:20.658Z,82.77
2022-12-14T08:27:13.775Z,82.87
2022-12-14T08:29:42.392Z,82.98
2022-12-14T08:32:10.365Z,82.86
2022-12-14T08:34:37.662Z,82.98
2022-12-14T08:37:05.652Z,82.79
2022-12-14T08:39:33.648Z,82.89
2022-12-14T08:42:01.712Z,83.05
2022-12-14T08:44:29.672Z,82.86
2022-12-14T08:46:57.743Z,82.67
2022-12-14T08:49:31.926Z,82.69
2022-12-14T08:51:59.723Z,82.80
2022-12-14T08:54:27.703Z,82.88
2022-12-14T08:56:55.802Z,83.03
2022-12-14T08:59:52.124Z,83.16
2022-12-14T09:02:11.883Z,83.21
2022-12-14T09:04:39.661Z,83.09
2022-12-14T09:07:11.805Z,83.01
2022-12-14T09:09:39.720Z,82.98
2022-12-14T09:12:07.905Z,83.18
2022-12-14T09:14:40.736Z,82.96
2022-12-14T09:17:07.695Z,83.22
2022-12-14T09:19:41.019Z,83.30
2022-12-14T09:22:09.015Z,83.46
2022-12-14T09:25:04.024Z,83.25
2022-12-14T09:27:33.408Z,83.23
2022-12-14T09:30:01.727Z,83.36
2022-12-14T09:32:29.992Z,83.41
2022-12-14T09:34:59.730Z,83.38
2022-12-14T09:40:52.871Z,83.11
2022-12-14T09:43:43.373Z,83.26
2022-12-14T09:46:23.458Z,83.34
2022-12-14T09:51:43.746Z,83.21
2022-12-14T09:54:38.855Z,83.28
2022-12-14T09:57:27.402Z,83.42
2022-12-14T09:59:56.323Z,83.01
2022-12-14T10:02:54.777Z,82.84
2022-12-14T10:05:43.697Z,82.83
2022-12-14T10:08:39.095Z,83.17
2022-12-14T10:11:16.229Z,83.00
2022-12-14T10:14:07.654Z,82.99
2022-12-14T10:20:02.173Z,83.08
2022-12-14T10:22:35.367Z,82.90
2022-12-14T10:25:30.873Z,82.57
2022-12-14T10:28:12.937Z,82.64
2022-12-14T10:30:48.284Z,82.58
2022-12-14T10:33:29.500Z,82.70
2022-12-14T10:36:38.184Z,82.61
2022-12-14T10:39:22.997Z,82.41
2022-12-14T10:42:15.289Z,82.18
2022-12-14T10:48:17.955Z,82.22
2022-12-14T10:51:37.304Z,82.03
2022-12-14T10:54:24.375Z,82.07
2022-12-14T10:56:52.000Z,82.24
2022-12-14T10:59:23.821Z,82.13
2022-12-14T11:02:22.176Z,82.07
2022-12-14T11:04:54.144Z,82.14
2022-12-14T11:07:30.992Z,82.26
2022-12-14T11:10:17.360Z,82.04
2022-12-14T11:13:03.700Z,82.29
2022-12-14T11:16:14.608Z,82.15
2022-12-14T11:18:41.668Z,82.12
2022-12-14T11:21:42.461Z,81.99
2022-12-14T11:24:42.611Z,81.94
2022-12-14T11:27:16.146Z,81.90
2022-12-14T11:29:52.621Z,82.21
2022-12-14T11:32:24.071Z,81.89
2022-12-14T11:34:57.522Z,81.50
2022-12-14T11:37:29.037Z,81.65
2022-12-14T11:39:59.164Z,81.35
2022-12-14T11:42:28.687Z,81.56
2022-12-14T11:45:32.487Z,81.48
2022-12-14T11:48:15.084Z,81.56
2022-12-14T11:54:29.954Z,81.11
2022-12-14T11:57:34.902Z,81.16
2022-12-14T12:00:07.949Z,80.57
2022-12-14T12:02:46.923Z,80.80
2022-12-14T12:05:23.542Z,80.88
2022-12-14T12:08:02.107Z,78.51
2022-12-14T12:10:44.873Z,77.94
2022-12-14T12:13:27.609Z,78.49
2022-12-14T12:16:25.329Z,78.93
2022-12-14T12:19:11.699Z,78.92
2022-12-14T12:21:42.439Z,79.13
2022-12-14T12:24:31.343Z,79.11
2022-12-14T12:30:21.002Z,78.02
2022-12-14T12:32:51.256Z,76.73
2022-12-14T12:35:31.870Z,77.21
2022-12-14T12:38:19.497Z,78.43
2022-12-14T12:41:00.743Z,77.81
2022-12-14T12:43:36.599Z,77.77
2022-12-14T12:46:13.274Z,77.64
2022-12-14T12:48:48.993Z,78.25
2022-12-14T12:54:23.920Z,78.26
2022-12-14T12:57:18.236Z,76.82
2022-12-14T12:59:49.457Z,76.64
2022-12-14T13:02:51.244Z,76.98
2022-12-14T13:05:45.669Z,77.26
2022-12-14T13:08:34.156Z,77.66
2022-12-14T13:11:28.134Z,77.70
2022-12-14T13:14:12.419Z,77.60
2022-12-14T13:16:46.939Z,78.21
2022-12-14T13:19:49.254Z,77.31
2022-12-14T13:22:24.413Z,76.87
2022-12-14T13:24:58.973Z,77.41
2022-12-14T13:27:36.908Z,76.66
2022-12-14T13:33:19.343Z,78.24
2022-12-14T13:36:21.851Z,77.44
2022-12-14T13:38:58.889Z,76.57
2022-12-14T13:41:50.498Z,76.88
2022-12-14T13:44:54.235Z,77.53
2022-12-14T13:47:27.456Z,77.40
2022-12-14T13:52:48.992Z,77.77
2022-12-14T13:55:34.021Z,77.69
2022-12-14T13:58:19.482Z,77.74
2022-12-14T14:00:55.234Z,76.60
2022-12-14T14:03:36.125Z,75.98
2022-12-14T14:06:12.910Z,75.73
2022-12-14T14:08:44.975Z,76.51
2022-12-14T14:11:39.363Z,76.34
2022-12-14T14:14:39.908Z,76.43
2022-12-14T14:17:30.285Z,76.85
2022-12-14T14:19:59.145Z,77.92
2022-12-14T14:22:29.574Z,77.77
2022-12-14T14:25:10.073Z,77.75
2022-12-14T14:27:39.678Z,77.39
2022-12-14T14:30:31.524Z,77.96
2022-12-14T14:35:51.767Z,77.63
2022-12-14T14:38:28.053Z,77.87
2022-12-14T14:41:15.893Z,77.91
2022-12-14T14:43:51.513Z,78.19
2022-12-14T14:46:23.074Z,78.05
2022-12-14T14:49:29.258Z,78.53
2022-12-14T14:53:01.199Z,78.26
2022-12-14T14:58:38.444Z,78.22
2022-12-14T15:01:21.881Z,78.55
2022-12-14T15:04:23.196Z,78.59
2022-12-14T15:07:21.541Z,79.19
2022-12-14T15:10:06.345Z,79.17
2022-12-14T15:13:00.849Z,78.88
2022-12-14T15:15:39.703Z,79.01
2022-12-14T15:21:13.954Z,79.50
2022-12-14T15:23:49.322Z,79.89
2022-12-14T15:26:28.804Z,79.79
2022-12-14T15:29:04.494Z,79.71
2022-12-14T15:31:39.815Z,79.96
2022-12-14T15:37:32.742Z,80.25
2022-12-14T15:40:16.842Z,80.60
2022-12-14T15:42:47.900Z,80.32
2022-12-14T15:45:19.205Z,80.23
2022-12-14T15:47:49.192Z,80.26
2022-12-14T15:50:34.622Z,80.30
2022-12-14T15:53:18.147Z,80.16
2022-12-14T15:55:50.016Z,80.32
2022-12-14T15:58:53.995Z,80.28
2022-12-14T16:01:26.880Z,80.32
2022-12-14T16:03:56.528Z,80.45
2022-12-14T16:06:27.815Z,80.54
2022-12-14T16:12:44.748Z,80.38
2022-12-14T16:15:37.238Z,80.41
2022-12-14T16:18:10.960Z,80.55
2022-12-14T16:23:40.436Z,80.55
2022-12-14T16:26:16.571Z,80.47
2022-12-14T16:28:48.347Z,80.23
2022-12-14T16:31:23.671Z,80.31
2022-12-14T16:34:20.107Z,80.65
2022-12-14T16:37:22.799Z,80.69
2022-12-14T16:39:44.379Z,80.64
2022-12-14T16:42:38.115Z,80.71
2022-12-14T16:45:06.376Z,80.74
2022-12-14T16:47:39.615Z,80.61
2022-12-14T16:53:16.282Z,80.84
2022-12-14T16:56:06.578Z,80.56
2022-12-14T16:58:35.877Z,80.56
2022-12-14T17:01:09.135Z,80.77
2022-12-14T17:03:38.358Z,80.73
2022-12-14T17:06:22.667Z,80.73
2022-12-14T17:08:55.139Z,81.09
2022-12-14T17:11:32.944Z,80.84
2022-12-14T17:13:59.837Z,81.16
2022-12-14T17:16:32.422Z,80.95
2022-12-14T17:18:59.833Z,81.11
2022-12-14T17:21:29.470Z,81.08
2022-12-14T17:24:01.944Z,80.90
2022-12-14T17:29:48.763Z,80.72
2022-12-14T17:32:16.880Z,80.75
2022-12-14T17:34:45.464Z,81.00
2022-12-14T17:40:29.747Z,81.49
2022-12-14T17:42:58.699Z,81.79
2022-12-14T17:45:31.716Z,81.43
2022-12-14T17:50:51.768Z,81.44
2022-12-14T17:53:30.222Z,81.21
2022-12-14T17:55:58.786Z,81.36
2022-12-14T17:58:32.689Z,81.66
2022-12-14T18:01:03.161Z,81.43
2022-12-14T18:03:36.273Z,81.10
2022-12-14T18:06:04.629Z,81.29
2022-12-14T18:08:31.774Z,81.33
2022-12-14T18:11:02.519Z,81.33
2022-12-14T18:13:55.755Z,81.21
2022-12-14T18:16:29.177Z,81.35
2022-12-14T18:18:58.086Z,81.51
2022-12-14T18:21:29.517Z,81.40
2022-12-14T18:26:50.169Z,81.44
2022-12-14T18:29:22.775Z,81.49
2022-12-14T18:31:51.405Z,81.73
2022-12-14T18:37:35.708Z,81.63
2022-12-14T18:40:04.472Z,81.45
2022-12-14T18:42:31.745Z,81.73
2022-12-14T18:44:59.955Z,81.85
2022-12-14T18:47:41.723Z,81.99
2022-12-14T18:50:10.372Z,81.74
2022-12-14T18:52:39.617Z,81.66
2022-12-14T18:55:31.193Z,81.52
2022-12-14T18:58:02.090Z,82.01
2022-12-14T19:00:40.393Z,81.85
2022-12-14T19:03:12.880Z,81.99
2022-12-14T19:05:50.993Z,81.84
2022-12-14T19:08:17.878Z,81.99
2022-12-14T19:10:48.144Z,81.91
2022-12-14T19:13:25.117Z,81.79
2022-12-14T19:15:54.379Z,81.85
2022-12-14T19:18:52.442Z,81.80
2022-12-14T19:21:19.875Z,81.98
2022-12-14T19:23:47.771Z,81.70
2022-12-14T19:26:17.629Z,81.81
2022-12-14T19:28:46.927Z,81.64
2022-12-14T19:31:15.866Z,81.67
2022-12-14T19:33:45.060Z,81.94
2022-12-14T19:36:13.919Z,82.00
2022-12-14T19:38:41.813Z,81.67
2022-12-14T19:41:13.886Z,81.73
2022-12-14T19:43:41.705Z,81.70
2022-12-14T19:46:11.930Z,81.68
2022-12-14T19:48:40.354Z,81.55
2022-12-14T19:51:10.802Z,81.86
2022-12-14T19:53:40.097Z,81.67
2022-12-14T19:56:08.383Z,81.59
2022-12-14T19:58:36.579Z,81.54
2022-12-14T20:01:08.384Z,81.71
2022-12-14T20:03:37.002Z,82.09
2022-12-14T20:06:06.589Z,81.94
2022-12-14T20:09:01.749Z,81.92
2022-12-14T20:11:30.190Z,82.21
2022-12-14T20:14:03.123Z,82.01
2022-12-14T20:16:36.969Z,82.16
2022-12-14T20:19:29.707Z,82.26
2022-12-14T20:22:01.839Z,82.19
2022-12-14T20:24:30.128Z,82.25
2022-12-14T20:26:58.242Z,82.30
2022-12-14T20:29:31.947Z,82.33
2022-12-14T20:31:59.859Z,82.41
2022-12-14T20:34:28.985Z,82.46
2022-12-14T20:36:55.674Z,82.39
2022-12-14T20:39:23.831Z,82.18
2022-12-14T20:42:15.759Z,82.35
2022-12-14T20:44:43.803Z,82.35
2022-12-14T20:53:01.954Z,82.47
2022-12-14T20:55:29.879Z,82.25
2022-12-14T20:58:02.836Z,82.34
2022-12-14T21:00:29.868Z,82.32
2022-12-14T21:02:58.015Z,82.11
2022-12-14T21:05:25.750Z,82.40
2022-12-14T21:07:57.702Z,82.34
2022-12-14T21:10:25.741Z,82.40
2022-12-14T21:13:01.800Z,82.36
2022-12-14T21:15:57.770Z,82.41
2022-12-14T21:18:29.895Z,82.43
2022-12-14T21:21:04.694Z,82.39
2022-12-14T21:23:40.952Z,82.33
2022-12-14T21:26:07.714Z,82.66
2022-12-14T21:28:35.733Z,82.66
2022-12-14T21:31:05.453Z,82.37
2022-12-14T21:33:37.722Z,82.29
2022-12-14T21:36:08.402Z,82.26
2022-12-14T21:38:41.832Z,82.29
2022-12-14T21:41:30.044Z,82.42
2022-12-14T21:44:01.784Z,82.32
2022-12-14T21:46:29.954Z,82.26
2022-12-14T21:49:01.854Z,82.26
2022-12-14T21:51:29.765Z,82.29
2022-12-14T21:54:00.564Z,82.29
2022-12-14T21:56:54.222Z,82.23
2022-12-14T21:59:35.212Z,82.34
2022-12-14T22:02:24.748Z,82.12
2022-12-14T22:05:22.735Z,82.18
2022-12-14T22:07:54.755Z,82.64
2022-12-14T22:10:26.682Z,82.58
2022-12-14T22:12:59.803Z,82.55
2022-12-14T22:15:27.878Z,82.62
2022-12-14T22:17:55.841Z,82.52
2022-12-14T22:20:24.726Z,82.42
2022-12-14T22:22:51.728Z,82.47
2022-12-14T22:25:19.683Z,82.41
2022-12-14T22:27:50.094Z,82.43
2022-12-14T22:30:18.407Z,82.27
2022-12-14T22:32:50.891Z,82.44
2022-12-14T22:35:18.070Z,82.56
2022-12-14T22:37:49.756Z,82.42
2022-12-14T22:40:17.735Z,82.40
2022-12-14T22:46:08.395Z,82.32
2022-12-14T22:48:36.523Z,82.28
2022-12-14T22:51:12.056Z,82.36
2022-12-14T22:53:39.825Z,82.15
2022-12-14T22:56:15.975Z,82.33
2022-12-14T22:58:49.577Z,82.48
2022-12-14T23:01:19.450Z,81.98
2022-12-14T23:03:47.982Z,82.26
2022-12-14T23:09:27.288Z,82.23
2022-12-14T23:12:18.250Z,82.11
2022-12-14T23:15:08.275Z,82.26
2022-12-14T23:18:25.761Z,82.32
2022-12-14T23:21:13.038Z,82.39
2022-12-14T23:24:04.066Z,82.58
2022-12-14T23:26:51.725Z,82.57
2022-12-14T23:29:38.250Z,82.74
2022-12-14T23:32:24.499Z,82.49
2022-12-14T23:35:10.169Z,82.47
2022-12-14T23:38:01.538Z,82.52
2022-12-14T23:40:48.053Z,82.46
2022-12-14T23:43:36.479Z,82.48
2022-12-14T23:46:30.521Z,82.46
2022-12-14T23:49:16.463Z,82.29
2022-12-14T23:52:28.290Z,82.31
2022-12-14T23:55:14.333Z,82.32
2022-12-14T23:58:00.439Z,82.36
